sensor_id;sensor_type;location;lat;lon;timestamp;P1;durP1;ratioP1;P2;durP2;ratioP2
19402;SDS011;9837;48.888;8.998;2023-06-14T00:01:46;4.83;;;3.40;;
19402;SDS011;9837;48.888;8.998;2023-06-14T00:04:12;3.93;;;3.20;;
19402;SDS011;9837;48.888;8.998;2023-06-14T00:06:38;4.90;;;3.30;;
19402;SDS011;9837;48.888;8.998;2023-06-14T00:09:04;4.97;;;3.30;;
19402;SDS011;9837;48.888;8.998;2023-06-14T00:11:33;6.77;;;3.60;;
19402;SDS011;9837;48.888;8.998;2023-06-14T00:13:59;4.90;;;3.83;;
19402;SDS011;9837;48.888;8.998;2023-06-14T00:16:25;4.20;;;3.40;;
19402;SDS011;9837;48.888;8.998;2023-06-14T00:18:51;7.23;;;3.83;;
19402;SDS011;9837;48.888;8.998;2023-06-14T00:21:17;6.57;;;4.07;;
19402;SDS011;9837;48.888;8.998;2023-06-14T00:23:43;5.20;;;3.80;;
19402;SDS011;9837;48.888;8.998;2023-06-14T00:26:08;9.47;;;3.67;;
19402;SDS011;9837;48.888;8.998;2023-06-14T00:28:34;7.90;;;3.93;;
19402;SDS011;9837;48.888;8.998;2023-06-14T00:31:00;5.60;;;3.83;;
19402;SDS011;9837;48.888;8.998;2023-06-14T00:33:26;5.97;;;3.53;;
19402;SDS011;9837;48.888;8.998;2023-06-14T00:35:51;5.40;;;3.50;;
19402;SDS011;9837;48.888;8.998;2023-06-14T00:38:19;8.80;;;4.00;;
19402;SDS011;9837;48.888;8.998;2023-06-14T00:40:45;8.57;;;3.70;;
19402;SDS011;9837;48.888;8.998;2023-06-14T00:43:10;4.97;;;3.53;;
19402;SDS011;9837;48.888;8.998;2023-06-14T00:45:36;12.63;;;3.73;;
19402;SDS011;9837;48.888;8.998;2023-06-14T00:48:02;5.30;;;4.07;;
19402;SDS011;9837;48.888;8.998;2023-06-14T00:50:28;6.67;;;4.10;;
19402;SDS011;9837;48.888;8.998;2023-06-14T00:52:56;5.60;;;4.17;;
19402;SDS011;9837;48.888;8.998;2023-06-14T00:55:22;6.57;;;3.70;;
19402;SDS011;9837;48.888;8.998;2023-06-14T00:57:48;4.60;;;4.07;;
19402;SDS011;9837;48.888;8.998;2023-06-14T01:00:14;5.40;;;4.40;;
19402;SDS011;9837;48.888;8.998;2023-06-14T01:02:40;5.97;;;4.10;;
19402;SDS011;9837;48.888;8.998;2023-06-14T01:05:06;8.13;;;4.03;;
19402;SDS011;9837;48.888;8.998;2023-06-14T01:07:42;7.77;;;4.30;;
19402;SDS011;9837;48.888;8.998;2023-06-14T01:13:12;6.80;;;4.07;;
19402;SDS011;9837;48.888;8.998;2023-06-14T01:15:45;9.37;;;4.40;;
19402;SDS011;9837;48.888;8.998;2023-06-14T01:18:12;5.03;;;3.87;;
19402;SDS011;9837;48.888;8.998;2023-06-14T01:20:44;6.17;;;4.27;;
19402;SDS011;9837;48.888;8.998;2023-06-14T01:23:14;12.00;;;4.53;;
19402;SDS011;9837;48.888;8.998;2023-06-14T01:25:41;7.20;;;3.70;;
19402;SDS011;9837;48.888;8.998;2023-06-14T01:28:09;7.80;;;4.03;;
19402;SDS011;9837;48.888;8.998;2023-06-14T01:30:39;6.10;;;3.77;;
19402;SDS011;9837;48.888;8.998;2023-06-14T01:33:16;5.97;;;4.03;;
19402;SDS011;9837;48.888;8.998;2023-06-14T01:35:45;7.80;;;4.23;;
19402;SDS011;9837;48.888;8.998;2023-06-14T01:38:12;5.87;;;4.20;;
19402;SDS011;9837;48.888;8.998;2023-06-14T01:40:39;5.87;;;4.47;;
19402;SDS011;9837;48.888;8.998;2023-06-14T01:43:07;4.70;;;3.80;;
19402;SDS011;9837;48.888;8.998;2023-06-14T01:45:34;6.00;;;4.37;;
19402;SDS011;9837;48.888;8.998;2023-06-14T01:48:01;8.10;;;4.60;;
19402;SDS011;9837;48.888;8.998;2023-06-14T01:50:28;6.03;;;4.20;;
19402;SDS011;9837;48.888;8.998;2023-06-14T01:52:55;5.33;;;3.70;;
19402;SDS011;9837;48.888;8.998;2023-06-14T01:55:20;6.60;;;4.10;;
19402;SDS011;9837;48.888;8.998;2023-06-14T01:57:46;6.63;;;3.70;;
19402;SDS011;9837;48.888;8.998;2023-06-14T02:00:13;8.00;;;4.17;;
19402;SDS011;9837;48.888;8.998;2023-06-14T02:02:39;4.50;;;3.83;;
19402;SDS011;9837;48.888;8.998;2023-06-14T02:05:06;6.50;;;3.70;;
19402;SDS011;9837;48.888;8.998;2023-06-14T02:07:32;5.47;;;3.63;;
19402;SDS011;9837;48.888;8.998;2023-06-14T02:09:58;10.53;;;4.70;;
19402;SDS011;9837;48.888;8.998;2023-06-14T02:12:24;5.90;;;4.10;;
19402;SDS011;9837;48.888;8.998;2023-06-14T02:14:50;9.53;;;4.23;;
19402;SDS011;9837;48.888;8.998;2023-06-14T02:17:16;7.27;;;4.33;;
19402;SDS011;9837;48.888;8.998;2023-06-14T02:19:42;8.17;;;3.90;;
19402;SDS011;9837;48.888;8.998;2023-06-14T02:22:07;4.73;;;4.17;;
19402;SDS011;9837;48.888;8.998;2023-06-14T02:24:33;8.07;;;3.80;;
19402;SDS011;9837;48.888;8.998;2023-06-14T02:27:00;5.73;;;3.90;;
19402;SDS011;9837;48.888;8.998;2023-06-14T02:29:26;5.17;;;4.13;;
19402;SDS011;9837;48.888;8.998;2023-06-14T02:31:52;5.97;;;4.20;;
19402;SDS011;9837;48.888;8.998;2023-06-14T02:34:17;6.73;;;4.70;;
19402;SDS011;9837;48.888;8.998;2023-06-14T02:36:45;8.50;;;4.10;;
19402;SDS011;9837;48.888;8.998;2023-06-14T02:39:10;6.33;;;3.97;;
19402;SDS011;9837;48.888;8.998;2023-06-14T02:41:36;4.97;;;3.87;;
19402;SDS011;9837;48.888;8.998;2023-06-14T02:44:02;6.90;;;4.30;;
19402;SDS011;9837;48.888;8.998;2023-06-14T02:46:28;4.80;;;4.07;;
19402;SDS011;9837;48.888;8.998;2023-06-14T02:48:54;10.53;;;4.43;;
19402;SDS011;9837;48.888;8.998;2023-06-14T02:51:19;6.50;;;3.63;;
19402;SDS011;9837;48.888;8.998;2023-06-14T02:53:46;8.03;;;4.10;;
19402;SDS011;9837;48.888;8.998;2023-06-14T02:56:12;9.43;;;3.80;;
19402;SDS011;9837;48.888;8.998;2023-06-14T02:58:38;4.67;;;4.10;;
19402;SDS011;9837;48.888;8.998;2023-06-14T03:01:04;7.43;;;3.83;;
19402;SDS011;9837;48.888;8.998;2023-06-14T03:03:32;4.60;;;4.03;;
19402;SDS011;9837;48.888;8.998;2023-06-14T03:05:58;4.47;;;3.70;;
19402;SDS011;9837;48.888;8.998;2023-06-14T03:08:29;4.53;;;3.60;;
19402;SDS011;9837;48.888;8.998;2023-06-14T03:10:55;4.47;;;4.00;;
19402;SDS011;9837;48.888;8.998;2023-06-14T03:13:21;4.43;;;3.60;;
19402;SDS011;9837;48.888;8.998;2023-06-14T03:15:47;7.43;;;3.90;;
19402;SDS011;9837;48.888;8.998;2023-06-14T03:18:15;7.63;;;4.77;;
19402;SDS011;9837;48.888;8.998;2023-06-14T03:20:44;5.87;;;3.77;;
19402;SDS011;9837;48.888;8.998;2023-06-14T03:23:13;13.17;;;4.37;;
19402;SDS011;9837;48.888;8.998;2023-06-14T03:25:38;5.93;;;4.20;;
19402;SDS011;9837;48.888;8.998;2023-06-14T03:28:07;6.43;;;4.13;;
19402;SDS011;9837;48.888;8.998;2023-06-14T03:30:33;7.43;;;3.90;;
19402;SDS011;9837;48.888;8.998;2023-06-14T03:32:58;10.60;;;4.10;;
19402;SDS011;9837;48.888;8.998;2023-06-14T03:35:26;8.27;;;3.80;;
19402;SDS011;9837;48.888;8.998;2023-06-14T03:37:53;6.57;;;4.07;;
19402;SDS011;9837;48.888;8.998;2023-06-14T03:40:20;4.70;;;3.70;;
19402;SDS011;9837;48.888;8.998;2023-06-14T03:42:46;8.80;;;4.50;;
19402;SDS011;9837;48.888;8.998;2023-06-14T03:45:12;6.90;;;4.10;;
19402;SDS011;9837;48.888;8.998;2023-06-14T03:47:37;10.40;;;4.40;;
19402;SDS011;9837;48.888;8.998;2023-06-14T03:50:03;7.10;;;4.20;;
19402;SDS011;9837;48.888;8.998;2023-06-14T03:52:29;6.83;;;4.20;;
19402;SDS011;9837;48.888;8.998;2023-06-14T03:54:56;7.50;;;4.00;;
19402;SDS011;9837;48.888;8.998;2023-06-14T03:57:22;5.60;;;4.10;;
19402;SDS011;9837;48.888;8.998;2023-06-14T03:59:48;5.93;;;4.30;;
19402;SDS011;9837;48.888;8.998;2023-06-14T04:02:14;7.83;;;4.50;;
19402;SDS011;9837;48.888;8.998;2023-06-14T04:04:41;6.27;;;4.17;;
19402;SDS011;9837;48.888;8.998;2023-06-14T04:07:12;7.97;;;4.57;;
19402;SDS011;9837;48.888;8.998;2023-06-14T04:09:38;7.27;;;4.83;;
19402;SDS011;9837;48.888;8.998;2023-06-14T04:12:05;7.80;;;4.40;;
19402;SDS011;9837;48.888;8.998;2023-06-14T04:14:31;7.43;;;4.63;;
19402;SDS011;9837;48.888;8.998;2023-06-14T04:17:00;7.77;;;4.40;;
19402;SDS011;9837;48.888;8.998;2023-06-14T04:19:26;6.50;;;4.40;;
19402;SDS011;9837;48.888;8.998;2023-06-14T04:21:52;6.00;;;4.40;;
19402;SDS011;9837;48.888;8.998;2023-06-14T04:24:17;7.07;;;4.17;;
19402;SDS011;9837;48.888;8.998;2023-06-14T04:26:43;7.60;;;4.00;;
19402;SDS011;9837;48.888;8.998;2023-06-14T04:29:10;5.33;;;3.87;;
19402;SDS011;9837;48.888;8.998;2023-06-14T04:31:39;7.73;;;4.50;;
19402;SDS011;9837;48.888;8.998;2023-06-14T04:34:06;7.97;;;4.77;;
19402;SDS011;9837;48.888;8.998;2023-06-14T04:36:32;8.90;;;4.07;;
19402;SDS011;9837;48.888;8.998;2023-06-14T04:39:06;9.83;;;3.97;;
19402;SDS011;9837;48.888;8.998;2023-06-14T04:41:32;6.40;;;4.00;;
19402;SDS011;9837;48.888;8.998;2023-06-14T04:44:00;7.47;;;4.47;;
19402;SDS011;9837;48.888;8.998;2023-06-14T04:46:27;6.37;;;3.90;;
19402;SDS011;9837;48.888;8.998;2023-06-14T04:48:53;5.47;;;3.97;;
19402;SDS011;9837;48.888;8.998;2023-06-14T04:51:19;8.70;;;4.20;;
19402;SDS011;9837;48.888;8.998;2023-06-14T04:53:47;4.57;;;4.00;;
19402;SDS011;9837;48.888;8.998;2023-06-14T04:56:14;7.43;;;4.50;;
19402;SDS011;9837;48.888;8.998;2023-06-14T04:58:40;6.83;;;4.50;;
19402;SDS011;9837;48.888;8.998;2023-06-14T05:01:05;6.83;;;4.20;;
19402;SDS011;9837;48.888;8.998;2023-06-14T05:03:34;5.67;;;4.43;;
19402;SDS011;9837;48.888;8.998;2023-06-14T05:06:00;5.13;;;4.03;;
19402;SDS011;9837;48.888;8.998;2023-06-14T05:08:25;7.03;;;4.00;;
19402;SDS011;9837;48.888;8.998;2023-06-14T05:10:51;6.18;;;4.55;;
19402;SDS011;9837;48.888;8.998;2023-06-14T05:13:17;7.40;;;4.10;;
19402;SDS011;9837;48.888;8.998;2023-06-14T05:15:43;6.68;;;4.50;;
19402;SDS011;9837;48.888;8.998;2023-06-14T05:18:09;6.38;;;4.75;;
19402;SDS011;9837;48.888;8.998;2023-06-14T05:20:35;8.00;;;4.80;;
19402;SDS011;9837;48.888;8.998;2023-06-14T05:23:02;11.13;;;4.90;;
19402;SDS011;9837;48.888;8.998;2023-06-14T05:25:28;5.97;;;4.67;;
19402;SDS011;9837;48.888;8.998;2023-06-14T05:27:53;17.10;;;5.17;;
19402;SDS011;9837;48.888;8.998;2023-06-14T05:30:19;5.97;;;3.93;;
19402;SDS011;9837;48.888;8.998;2023-06-14T05:32:45;8.93;;;4.47;;
19402;SDS011;9837;48.888;8.998;2023-06-14T05:35:11;8.20;;;4.83;;
19402;SDS011;9837;48.888;8.998;2023-06-14T05:37:36;7.37;;;5.10;;
19402;SDS011;9837;48.888;8.998;2023-06-14T05:40:03;12.90;;;5.00;;
19402;SDS011;9837;48.888;8.998;2023-06-14T05:42:32;5.97;;;4.82;;
19402;SDS011;9837;48.888;8.998;2023-06-14T05:44:58;7.15;;;5.03;;
19402;SDS011;9837;48.888;8.998;2023-06-14T05:47:24;14.43;;;4.85;;
19402;SDS011;9837;48.888;8.998;2023-06-14T05:49:50;7.47;;;4.90;;
19402;SDS011;9837;48.888;8.998;2023-06-14T05:52:16;8.18;;;4.78;;
19402;SDS011;9837;48.888;8.998;2023-06-14T05:54:41;5.85;;;4.63;;
19402;SDS011;9837;48.888;8.998;2023-06-14T05:57:07;5.65;;;4.43;;
19402;SDS011;9837;48.888;8.998;2023-06-14T05:59:33;7.97;;;5.18;;
19402;SDS011;9837;48.888;8.998;2023-06-14T06:01:59;6.90;;;4.78;;
19402;SDS011;9837;48.888;8.998;2023-06-14T06:04:24;10.38;;;4.88;;
19402;SDS011;9837;48.888;8.998;2023-06-14T06:06:50;6.40;;;4.88;;
19402;SDS011;9837;48.888;8.998;2023-06-14T06:09:16;7.07;;;4.57;;
19402;SDS011;9837;48.888;8.998;2023-06-14T06:11:42;7.82;;;4.78;;
19402;SDS011;9837;48.888;8.998;2023-06-14T06:14:08;5.22;;;4.63;;
19402;SDS011;9837;48.888;8.998;2023-06-14T06:16:33;6.45;;;4.43;;
19402;SDS011;9837;48.888;8.998;2023-06-14T06:19:00;6.15;;;4.22;;
19402;SDS011;9837;48.888;8.998;2023-06-14T06:21:25;8.82;;;4.75;;
19402;SDS011;9837;48.888;8.998;2023-06-14T06:23:51;6.43;;;4.82;;
19402;SDS011;9837;48.888;8.998;2023-06-14T06:26:17;5.18;;;4.55;;
19402;SDS011;9837;48.888;8.998;2023-06-14T06:28:43;7.95;;;4.95;;
19402;SDS011;9837;48.888;8.998;2023-06-14T06:31:08;6.22;;;5.00;;
19402;SDS011;9837;48.888;8.998;2023-06-14T06:33:36;7.15;;;4.95;;
19402;SDS011;9837;48.888;8.998;2023-06-14T06:36:01;11.50;;;5.18;;
19402;SDS011;9837;48.888;8.998;2023-06-14T06:38:27;6.25;;;4.70;;
19402;SDS011;9837;48.888;8.998;2023-06-14T06:40:53;6.25;;;5.07;;
19402;SDS011;9837;48.888;8.998;2023-06-14T06:43:19;5.53;;;4.55;;
19402;SDS011;9837;48.888;8.998;2023-06-14T06:45:45;7.50;;;5.03;;
19402;SDS011;9837;48.888;8.998;2023-06-14T06:48:10;9.13;;;5.15;;
19402;SDS011;9837;48.888;8.998;2023-06-14T06:50:36;8.73;;;4.97;;
19402;SDS011;9837;48.888;8.998;2023-06-14T06:53:01;11.73;;;5.88;;
19402;SDS011;9837;48.888;8.998;2023-06-14T06:55:27;8.60;;;5.55;;
19402;SDS011;9837;48.888;8.998;2023-06-14T06:57:53;8.00;;;4.57;;
19402;SDS011;9837;48.888;8.998;2023-06-14T07:00:19;7.03;;;4.60;;
19402;SDS011;9837;48.888;8.998;2023-06-14T07:02:45;9.00;;;5.45;;
19402;SDS011;9837;48.888;8.998;2023-06-14T07:05:11;7.68;;;4.75;;
19402;SDS011;9837;48.888;8.998;2023-06-14T07:07:36;7.40;;;5.40;;
19402;SDS011;9837;48.888;8.998;2023-06-14T07:10:03;5.47;;;4.65;;
19402;SDS011;9837;48.888;8.998;2023-06-14T07:12:30;5.28;;;4.75;;
19402;SDS011;9837;48.888;8.998;2023-06-14T07:14:58;8.95;;;4.47;;
19402;SDS011;9837;48.888;8.998;2023-06-14T07:17:25;11.73;;;4.82;;
19402;SDS011;9837;48.888;8.998;2023-06-14T07:19:51;9.38;;;4.47;;
19402;SDS011;9837;48.888;8.998;2023-06-14T07:22:18;6.03;;;4.15;;
19402;SDS011;9837;48.888;8.998;2023-06-14T07:24:44;8.85;;;4.97;;
19402;SDS011;9837;48.888;8.998;2023-06-14T07:27:09;9.07;;;4.95;;
19402;SDS011;9837;48.888;8.998;2023-06-14T07:29:35;5.88;;;4.38;;
19402;SDS011;9837;48.888;8.998;2023-06-14T07:32:01;5.22;;;4.18;;
19402;SDS011;9837;48.888;8.998;2023-06-14T07:34:26;6.53;;;4.38;;
19402;SDS011;9837;48.888;8.998;2023-06-14T07:36:52;12.98;;;5.43;;
19402;SDS011;9837;48.888;8.998;2023-06-14T07:39:19;7.18;;;4.82;;
19402;SDS011;9837;48.888;8.998;2023-06-14T07:41:44;13.23;;;5.18;;
19402;SDS011;9837;48.888;8.998;2023-06-14T07:44:10;5.47;;;4.47;;
19402;SDS011;9837;48.888;8.998;2023-06-14T07:46:37;5.53;;;4.15;;
19402;SDS011;9837;48.888;8.998;2023-06-14T07:49:03;7.30;;;4.63;;
19402;SDS011;9837;48.888;8.998;2023-06-14T07:51:28;5.70;;;4.60;;
19402;SDS011;9837;48.888;8.998;2023-06-14T07:53:54;6.38;;;4.72;;
19402;SDS011;9837;48.888;8.998;2023-06-14T07:56:19;5.68;;;4.88;;
19402;SDS011;9837;48.888;8.998;2023-06-14T07:58:45;7.63;;;4.97;;
19402;SDS011;9837;48.888;8.998;2023-06-14T08:01:11;5.75;;;4.40;;
19402;SDS011;9837;48.888;8.998;2023-06-14T08:03:37;4.68;;;4.10;;
19402;SDS011;9837;48.888;8.998;2023-06-14T08:06:02;5.70;;;4.25;;
19402;SDS011;9837;48.888;8.998;2023-06-14T08:08:29;5.82;;;4.22;;
19402;SDS011;9837;48.888;8.998;2023-06-14T08:10:55;6.70;;;4.35;;
19402;SDS011;9837;48.888;8.998;2023-06-14T08:13:21;6.17;;;4.80;;
19402;SDS011;9837;48.888;8.998;2023-06-14T08:15:47;5.00;;;4.50;;
19402;SDS011;9837;48.888;8.998;2023-06-14T08:18:13;9.27;;;4.47;;
19402;SDS011;9837;48.888;8.998;2023-06-14T08:20:38;7.77;;;4.40;;
19402;SDS011;9837;48.888;8.998;2023-06-14T08:23:05;10.67;;;4.47;;
19402;SDS011;9837;48.888;8.998;2023-06-14T08:25:30;12.13;;;4.77;;
19402;SDS011;9837;48.888;8.998;2023-06-14T08:27:56;5.73;;;4.50;;
19402;SDS011;9837;48.888;8.998;2023-06-14T08:30:22;8.27;;;4.73;;
19402;SDS011;9837;48.888;8.998;2023-06-14T08:32:47;10.10;;;4.57;;
19402;SDS011;9837;48.888;8.998;2023-06-14T08:35:13;7.73;;;4.60;;
19402;SDS011;9837;48.888;8.998;2023-06-14T08:37:40;5.97;;;4.20;;
19402;SDS011;9837;48.888;8.998;2023-06-14T08:40:07;5.93;;;4.43;;
19402;SDS011;9837;48.888;8.998;2023-06-14T08:42:43;10.20;;;4.23;;
19402;SDS011;9837;48.888;8.998;2023-06-14T08:45:10;12.10;;;4.63;;
19402;SDS011;9837;48.888;8.998;2023-06-14T08:47:36;6.93;;;4.53;;
19402;SDS011;9837;48.888;8.998;2023-06-14T08:50:01;7.57;;;4.37;;
19402;SDS011;9837;48.888;8.998;2023-06-14T08:52:29;7.53;;;4.70;;
19402;SDS011;9837;48.888;8.998;2023-06-14T08:54:58;5.03;;;4.10;;
19402;SDS011;9837;48.888;8.998;2023-06-14T08:57:25;11.90;;;4.20;;
19402;SDS011;9837;48.888;8.998;2023-06-14T08:59:55;5.83;;;4.27;;
19402;SDS011;9837;48.888;8.998;2023-06-14T09:02:21;10.53;;;4.10;;
19402;SDS011;9837;48.888;8.998;2023-06-14T09:04:47;8.07;;;4.23;;
19402;SDS011;9837;48.888;8.998;2023-06-14T09:07:14;7.73;;;4.40;;
19402;SDS011;9837;48.888;8.998;2023-06-14T09:09:40;5.33;;;3.67;;
19402;SDS011;9837;48.888;8.998;2023-06-14T09:12:10;9.47;;;4.20;;
19402;SDS011;9837;48.888;8.998;2023-06-14T09:14:37;6.33;;;4.13;;
19402;SDS011;9837;48.888;8.998;2023-06-14T09:17:05;4.60;;;3.93;;
19402;SDS011;9837;48.888;8.998;2023-06-14T09:19:31;7.60;;;4.03;;
19402;SDS011;9837;48.888;8.998;2023-06-14T09:21:58;5.40;;;3.90;;
19402;SDS011;9837;48.888;8.998;2023-06-14T09:24:24;4.10;;;3.50;;
19402;SDS011;9837;48.888;8.998;2023-06-14T09:26:51;7.83;;;4.33;;
19402;SDS011;9837;48.888;8.998;2023-06-14T09:29:17;9.30;;;4.17;;
19402;SDS011;9837;48.888;8.998;2023-06-14T09:31:45;4.63;;;3.77;;
19402;SDS011;9837;48.888;8.998;2023-06-14T09:34:12;5.53;;;4.17;;
19402;SDS011;9837;48.888;8.998;2023-06-14T09:36:38;6.23;;;4.40;;
19402;SDS011;9837;48.888;8.998;2023-06-14T09:39:05;8.83;;;3.40;;
19402;SDS011;9837;48.888;8.998;2023-06-14T09:41:33;5.57;;;3.83;;
19402;SDS011;9837;48.888;8.998;2023-06-14T09:44:00;7.73;;;3.87;;
19402;SDS011;9837;48.888;8.998;2023-06-14T09:46:27;5.00;;;3.83;;
19402;SDS011;9837;48.888;8.998;2023-06-14T09:48:54;6.97;;;5.27;;
19402;SDS011;9837;48.888;8.998;2023-06-14T09:51:20;8.30;;;4.33;;
19402;SDS011;9837;48.888;8.998;2023-06-14T09:53:51;4.70;;;3.70;;
19402;SDS011;9837;48.888;8.998;2023-06-14T09:56:20;4.17;;;3.77;;
19402;SDS011;9837;48.888;8.998;2023-06-14T09:58:54;6.73;;;4.00;;
19402;SDS011;9837;48.888;8.998;2023-06-14T10:01:21;6.43;;;4.23;;
19402;SDS011;9837;48.888;8.998;2023-06-14T10:03:50;3.73;;;3.40;;
19402;SDS011;9837;48.888;8.998;2023-06-14T10:06:20;5.30;;;3.60;;
19402;SDS011;9837;48.888;8.998;2023-06-14T10:08:49;6.93;;;3.83;;
19402;SDS011;9837;48.888;8.998;2023-06-14T10:11:17;6.67;;;3.40;;
19402;SDS011;9837;48.888;8.998;2023-06-14T10:13:43;4.63;;;3.55;;
19402;SDS011;9837;48.888;8.998;2023-06-14T10:16:12;7.50;;;3.60;;
19402;SDS011;9837;48.888;8.998;2023-06-14T10:18:50;4.40;;;3.50;;
19402;SDS011;9837;48.888;8.998;2023-06-14T10:24:08;6.20;;;3.53;;
19402;SDS011;9837;48.888;8.998;2023-06-14T10:26:49;7.13;;;3.73;;
19402;SDS011;9837;48.888;8.998;2023-06-14T10:29:16;5.17;;;3.90;;
19402;SDS011;9837;48.888;8.998;2023-06-14T10:34:08;7.80;;;3.97;;
19402;SDS011;9837;48.888;8.998;2023-06-14T10:36:34;7.70;;;3.60;;
19402;SDS011;9837;48.888;8.998;2023-06-14T10:41:29;6.83;;;3.37;;
19402;SDS011;9837;48.888;8.998;2023-06-14T10:44:10;5.70;;;3.67;;
19402;SDS011;9837;48.888;8.998;2023-06-14T10:46:48;5.90;;;3.53;;
19402;SDS011;9837;48.888;8.998;2023-06-14T10:49:18;4.10;;;3.00;;
19402;SDS011;9837;48.888;8.998;2023-06-14T10:51:45;6.18;;;3.65;;
19402;SDS011;9837;48.888;8.998;2023-06-14T10:54:15;6.13;;;3.30;;
19402;SDS011;9837;48.888;8.998;2023-06-14T10:56:51;4.25;;;3.40;;
19402;SDS011;9837;48.888;8.998;2023-06-14T10:59:18;11.18;;;3.65;;
19402;SDS011;9837;48.888;8.998;2023-06-14T11:01:54;6.90;;;3.58;;
19402;SDS011;9837;48.888;8.998;2023-06-14T11:04:46;4.18;;;3.20;;
19402;SDS011;9837;48.888;8.998;2023-06-14T11:10:17;5.95;;;3.80;;
19402;SDS011;9837;48.888;8.998;2023-06-14T11:13:01;8.52;;;3.90;;
19402;SDS011;9837;48.888;8.998;2023-06-14T11:15:28;8.35;;;3.55;;
19402;SDS011;9837;48.888;8.998;2023-06-14T11:17:54;8.90;;;4.43;;
19402;SDS011;9837;48.888;8.998;2023-06-14T11:20:24;3.80;;;3.30;;
19402;SDS011;9837;48.888;8.998;2023-06-14T11:22:51;4.60;;;3.17;;
19402;SDS011;9837;48.888;8.998;2023-06-14T11:25:17;7.37;;;4.23;;
19402;SDS011;9837;48.888;8.998;2023-06-14T11:27:43;4.97;;;4.10;;
19402;SDS011;9837;48.888;8.998;2023-06-14T11:30:09;5.90;;;3.38;;
19402;SDS011;9837;48.888;8.998;2023-06-14T11:32:36;6.43;;;3.53;;
19402;SDS011;9837;48.888;8.998;2023-06-14T11:35:05;4.05;;;3.50;;
19402;SDS011;9837;48.888;8.998;2023-06-14T11:37:31;5.95;;;3.97;;
19402;SDS011;9837;48.888;8.998;2023-06-14T11:40:00;4.55;;;3.40;;
19402;SDS011;9837;48.888;8.998;2023-06-14T11:42:28;3.92;;;3.47;;
19402;SDS011;9837;48.888;8.998;2023-06-14T11:44:55;8.55;;;3.30;;
19402;SDS011;9837;48.888;8.998;2023-06-14T11:47:21;7.07;;;3.58;;
19402;SDS011;9837;48.888;8.998;2023-06-14T11:49:47;4.30;;;3.30;;
19402;SDS011;9837;48.888;8.998;2023-06-14T11:52:13;4.93;;;3.40;;
19402;SDS011;9837;48.888;8.998;2023-06-14T11:54:38;5.63;;;3.70;;
19402;SDS011;9837;48.888;8.998;2023-06-14T11:57:08;4.40;;;3.60;;
19402;SDS011;9837;48.888;8.998;2023-06-14T11:59:39;4.78;;;3.42;;
19402;SDS011;9837;48.888;8.998;2023-06-14T12:02:05;6.05;;;3.42;;
19402;SDS011;9837;48.888;8.998;2023-06-14T12:04:31;6.13;;;3.40;;
19402;SDS011;9837;48.888;8.998;2023-06-14T12:06:57;6.00;;;2.97;;
19402;SDS011;9837;48.888;8.998;2023-06-14T12:10:03;7.25;;;3.40;;
19402;SDS011;9837;48.888;8.998;2023-06-14T12:12:26;11.32;;;3.72;;
19402;SDS011;9837;48.888;8.998;2023-06-14T12:14:52;4.15;;;3.45;;
19402;SDS011;9837;48.888;8.998;2023-06-14T12:17:18;11.82;;;3.28;;
19402;SDS011;9837;48.888;8.998;2023-06-14T12:19:45;5.32;;;3.00;;
19402;SDS011;9837;48.888;8.998;2023-06-14T12:22:11;4.20;;;3.25;;
19402;SDS011;9837;48.888;8.998;2023-06-14T12:24:38;6.85;;;3.40;;
19402;SDS011;9837;48.888;8.998;2023-06-14T12:27:04;4.13;;;3.20;;
19402;SDS011;9837;48.888;8.998;2023-06-14T12:29:30;3.53;;;2.95;;
19402;SDS011;9837;48.888;8.998;2023-06-14T12:31:56;8.35;;;3.83;;
19402;SDS011;9837;48.888;8.998;2023-06-14T12:34:26;4.35;;;3.40;;
19402;SDS011;9837;48.888;8.998;2023-06-14T12:36:52;4.03;;;3.22;;
19402;SDS011;9837;48.888;8.998;2023-06-14T12:39:19;3.80;;;3.20;;
19402;SDS011;9837;48.888;8.998;2023-06-14T12:41:45;4.30;;;3.30;;
19402;SDS011;9837;48.888;8.998;2023-06-14T12:44:11;6.15;;;3.55;;
19402;SDS011;9837;48.888;8.998;2023-06-14T12:46:37;3.42;;;3.13;;
19402;SDS011;9837;48.888;8.998;2023-06-14T12:49:07;7.32;;;3.20;;
19402;SDS011;9837;48.888;8.998;2023-06-14T12:51:34;4.78;;;3.63;;
19402;SDS011;9837;48.888;8.998;2023-06-14T12:53:59;12.98;;;3.80;;
19402;SDS011;9837;48.888;8.998;2023-06-14T12:56:25;7.28;;;3.40;;
19402;SDS011;9837;48.888;8.998;2023-06-14T12:58:51;7.25;;;3.60;;
19402;SDS011;9837;48.888;8.998;2023-06-14T13:01:17;7.82;;;3.40;;
19402;SDS011;9837;48.888;8.998;2023-06-14T13:03:43;5.40;;;3.35;;
19402;SDS011;9837;48.888;8.998;2023-06-14T13:06:09;8.25;;;3.33;;
19402;SDS011;9837;48.888;8.998;2023-06-14T13:08:35;6.57;;;3.47;;
19402;SDS011;9837;48.888;8.998;2023-06-14T13:11:00;3.90;;;3.20;;
19402;SDS011;9837;48.888;8.998;2023-06-14T13:13:26;4.80;;;3.20;;
19402;SDS011;9837;48.888;8.998;2023-06-14T13:15:52;5.68;;;3.20;;
19402;SDS011;9837;48.888;8.998;2023-06-14T13:18:17;5.32;;;3.88;;
19402;SDS011;9837;48.888;8.998;2023-06-14T13:20:44;4.35;;;3.10;;
19402;SDS011;9837;48.888;8.998;2023-06-14T13:23:11;5.57;;;3.40;;
19402;SDS011;9837;48.888;8.998;2023-06-14T13:25:37;4.90;;;3.30;;
19402;SDS011;9837;48.888;8.998;2023-06-14T13:28:03;3.67;;;3.17;;
19402;SDS011;9837;48.888;8.998;2023-06-14T13:30:29;6.75;;;3.00;;
19402;SDS011;9837;48.888;8.998;2023-06-14T13:32:55;6.10;;;3.70;;
19402;SDS011;9837;48.888;8.998;2023-06-14T13:35:22;5.20;;;3.17;;
19402;SDS011;9837;48.888;8.998;2023-06-14T13:37:47;6.82;;;2.90;;
19402;SDS011;9837;48.888;8.998;2023-06-14T13:40:13;4.03;;;3.63;;
19402;SDS011;9837;48.888;8.998;2023-06-14T13:42:39;3.97;;;3.28;;
19402;SDS011;9837;48.888;8.998;2023-06-14T13:45:05;5.65;;;3.40;;
19402;SDS011;9837;48.888;8.998;2023-06-14T13:47:32;6.80;;;3.65;;
19402;SDS011;9837;48.888;8.998;2023-06-14T13:49:58;6.18;;;3.20;;
19402;SDS011;9837;48.888;8.998;2023-06-14T13:52:23;4.47;;;3.40;;
19402;SDS011;9837;48.888;8.998;2023-06-14T13:54:49;3.97;;;3.58;;
19402;SDS011;9837;48.888;8.998;2023-06-14T13:57:15;13.23;;;3.90;;
19402;SDS011;9837;48.888;8.998;2023-06-14T13:59:41;4.63;;;4.03;;
19402;SDS011;9837;48.888;8.998;2023-06-14T14:02:08;5.38;;;3.03;;
19402;SDS011;9837;48.888;8.998;2023-06-14T14:04:34;3.83;;;3.47;;
19402;SDS011;9837;48.888;8.998;2023-06-14T14:07:01;7.15;;;3.30;;
19402;SDS011;9837;48.888;8.998;2023-06-14T14:09:27;3.63;;;3.33;;
19402;SDS011;9837;48.888;8.998;2023-06-14T14:11:52;4.68;;;3.47;;
19402;SDS011;9837;48.888;8.998;2023-06-14T14:14:18;4.00;;;3.35;;
19402;SDS011;9837;48.888;8.998;2023-06-14T14:16:43;5.72;;;3.22;;
19402;SDS011;9837;48.888;8.998;2023-06-14T14:19:09;6.03;;;3.67;;
19402;SDS011;9837;48.888;8.998;2023-06-14T14:21:35;7.35;;;3.60;;
19402;SDS011;9837;48.888;8.998;2023-06-14T14:24:01;6.47;;;3.60;;
19402;SDS011;9837;48.888;8.998;2023-06-14T14:26:26;6.60;;;3.50;;
19402;SDS011;9837;48.888;8.998;2023-06-14T14:28:52;3.67;;;3.38;;
19402;SDS011;9837;48.888;8.998;2023-06-14T14:31:18;8.65;;;3.47;;
19402;SDS011;9837;48.888;8.998;2023-06-14T14:33:44;4.50;;;3.03;;
19402;SDS011;9837;48.888;8.998;2023-06-14T14:36:10;5.18;;;3.30;;
19402;SDS011;9837;48.888;8.998;2023-06-14T14:38:36;6.35;;;3.35;;
19402;SDS011;9837;48.888;8.998;2023-06-14T14:41:01;6.53;;;3.25;;
19402;SDS011;9837;48.888;8.998;2023-06-14T14:43:28;5.38;;;3.17;;
19402;SDS011;9837;48.888;8.998;2023-06-14T14:45:56;5.38;;;3.60;;
19402;SDS011;9837;48.888;8.998;2023-06-14T14:48:22;3.65;;;3.20;;
19402;SDS011;9837;48.888;8.998;2023-06-14T14:50:47;3.90;;;3.42;;
19402;SDS011;9837;48.888;8.998;2023-06-14T14:53:13;5.43;;;3.65;;
19402;SDS011;9837;48.888;8.998;2023-06-14T14:55:42;5.00;;;3.63;;
19402;SDS011;9837;48.888;8.998;2023-06-14T14:58:08;9.30;;;3.42;;
19402;SDS011;9837;48.888;8.998;2023-06-14T15:00:34;5.88;;;3.38;;
19402;SDS011;9837;48.888;8.998;2023-06-14T15:02:59;5.07;;;3.13;;
19402;SDS011;9837;48.888;8.998;2023-06-14T15:05:25;3.42;;;3.13;;
19402;SDS011;9837;48.888;8.998;2023-06-14T15:07:50;3.65;;;3.35;;
19402;SDS011;9837;48.888;8.998;2023-06-14T15:10:16;4.55;;;3.10;;
19402;SDS011;9837;48.888;8.998;2023-06-14T15:12:41;5.50;;;3.50;;